Time;durP1;ratioP1;P1;durP2;ratioP2;P2;SDS_P1;SDS_P2;PMS_P1;PMS_P2;Temp;Humidity;BMP_temperature;BMP_pressure;BME280_temperature;BME280_humidity;BME280_pressure;Samples;Min_cycle;Max_cycle;Signal;HPM_P1;HPM_P2
2021/08/16 00:00:16;;;;;;;;;;;;;;;19.00;100.00;95637.97;1040668;28;20346;-45
2021/08/16 00:00:47;;;;;;;;;;;;;;;18.94;100.00;95637.16;1040890;28;19920;-45
2021/08/16 00:01:17;;;;;;;;;;;;;;;18.96;100.00;95640.38;1040634;28;19924;-48
2021/08/16 00:01:48;;;;;;;;;;;;;;;18.97;100.00;95641.97;1040768;28;20349;-45
2021/08/16 00:02:18;;;;;;;;;;;;;;;18.97;100.00;95639.28;1036285;28;19985;-46
2021/08/16 00:02:48;;;;;;;;;;;;;;;18.94;100.00;95642.47;1036315;28;20354;-45
2021/08/16 00:03:18;;;;;;;;;;;;;;;18.96;100.00;95639.56;1036362;28;19924;-45
2021/08/16 00:03:49;;;;;;;;;;;;;;;18.97;100.00;95638.50;1036507;28;19909;-46
2021/08/16 00:04:19;;;;;;;;;;;;;;;18.99;100.00;95636.38;1040498;28;19913;-45
2021/08/16 00:04:50;;;;;;;;;;;;;;;18.98;100.00;95637.44;1040846;28;19995;-47
2021/08/16 00:05:20;;;;;;;;;;;;;;;18.98;100.00;95638.25;1040687;28;19913;-45
2021/08/16 00:05:50;;;;;;;;;;;;;;;18.96;100.00;95636.88;1040707;28;19909;-46
2021/08/16 00:06:20;;;;;;;;;;;;;;;18.90;100.00;95641.38;1040717;28;19953;-46
2021/08/16 00:06:51;;;;;;;;;;;;;;;18.89;100.00;95638.97;1040872;28;19909;-49
2021/08/16 00:07:21;;;;;;;;;;;;;;;18.87;100.00;95643.78;1032163;28;19917;-45
2021/08/16 00:07:51;;;;;;;;;;;;;;;18.86;100.00;95637.66;1032209;28;20433;-45
2021/08/16 00:08:22;;;;;;;;;;;;;;;18.92;100.00;95643.81;1032291;28;19917;-46
2021/08/16 00:08:52;;;;;;;;;;;;;;;18.94;100.00;95636.34;1032273;28;19913;-48
2021/08/16 00:09:22;;;;;;;;;;;;;;;18.93;100.00;95632.91;1040703;28;20350;-47
2021/08/16 00:09:52;;;;;;;;;;;;;;;18.95;100.00;95635.31;1040679;28;19914;-48
2021/08/16 00:10:23;;;;;;;;;;;;;;;18.95;100.00;95629.97;1040607;28;19909;-47
2021/08/16 00:10:53;;;;;;;;;;;;;;;18.94;100.00;95629.16;1040774;28;19910;-46
2021/08/16 00:11:23;;;;;;;;;;;;;;;18.94;100.00;95629.16;1040728;28;19905;-48
2021/08/16 00:11:53;;;;;;;;;;;;;;;18.94;100.00;95631.81;1040710;28;19946;-47
2021/08/16 00:12:24;;;;;;;;;;;;;;;18.92;100.00;95630.50;1040809;28;19992;-46
2021/08/16 00:12:55;;;;;;;;;;;;;;;18.94;100.00;95631.81;1040591;28;19963;-45
2021/08/16 00:13:25;;;;;;;;;;;;;;;18.95;100.00;95627.31;1040711;28;20246;-47
2021/08/16 00:13:55;;;;;;;;;;;;;;;18.93;100.00;95624.91;1040806;28;19921;-46
2021/08/16 00:14:25;;;;;;;;;;;;;;;18.95;100.00;95632.63;1040514;28;19909;-44
2021/08/16 00:14:56;;;;;;;;;;;;;;;18.93;100.00;95635.56;1040690;28;19909;-46
2021/08/16 00:15:26;;;;;;;;;;;;;;;18.97;100.00;95633.16;1036220;28;19929;-45
2021/08/16 00:15:56;;;;;;;;;;;;;;;18.99;100.00;95631.03;1036273;28;20334;-44
2021/08/16 00:16:27;;;;;;;;;;;;;;;18.99;100.00;95631.03;1036308;28;19918;-44
2021/08/16 00:16:57;;;;;;;;;;;;;;;19.10;100.00;95631.88;1032374;28;19969;-49
2021/08/16 00:17:27;;;;;;;;;;;;;;;19.02;100.00;95627.84;1036147;28;19913;-45
2021/08/16 00:17:59;;;;;;;;;;;;;;;19.00;100.00;95629.97;1036405;28;19910;-46
2021/08/16 00:18:30;;;;;;;;;;;;;;;18.99;100.00;95626.53;1036641;28;20367;-46
2021/08/16 00:19:00;;;;;;;;;;;;;;;18.97;100.00;95633.16;1040785;28;19971;-49
2021/08/16 00:19:31;;;;;;;;;;;;;;;18.96;100.00;95631.56;1040675;28;19917;-46
2021/08/16 00:20:01;;;;;;;;;;;;;;;18.98;100.00;95626.78;1040673;28;20277;-47
2021/08/16 00:20:31;;;;;;;;;;;;;;;18.99;100.00;95626.53;1040580;28;19920;-47
2021/08/16 00:21:02;;;;;;;;;;;;;;;19.03;100.00;95628.66;1040759;28;19909;-47
2021/08/16 00:21:32;;;;;;;;;;;;;;;19.06;100.00;95631.59;1040579;28;19954;-48
2021/08/16 00:22:02;;;;;;;;;;;;;;;19.02;100.00;95625.16;1040645;28;20373;-46
2021/08/16 00:22:33;;;;;;;;;;;;;;;19.01;100.00;95628.94;1039770;28;19940;-47
2021/08/16 00:23:03;;;;;;;;;;;;;;;18.98;100.00;95634.78;1036083;28;19913;-45
2021/08/16 00:23:33;;;;;;;;;;;;;;;18.97;100.00;95625.16;1036110;28;20385;-48
2021/08/16 00:24:04;;;;;;;;;;;;;;;18.96;100.00;95626.22;1036099;28;19914;-48
2021/08/16 00:24:34;;;;;;;;;;;;;;;18.98;100.00;95627.56;1035885;28;19913;-47
2021/08/16 00:25:04;;;;;;;;;;;;;;;18.98;100.00;95627.56;1040440;28;19924;-47
2021/08/16 00:25:35;;;;;;;;;;;;;;;19.00;100.00;95629.97;1040382;28;20406;-45
2021/08/16 00:26:05;;;;;;;;;;;;;;;18.95;100.00;95624.63;1040517;28;19979;-45
2021/08/16 00:26:35;;;;;;;;;;;;;;;18.98;100.00;95626.78;1036126;28;20013;-46
2021/08/16 00:27:06;;;;;;;;;;;;;;;18.98;100.00;95621.44;1036049;28;20399;-46
2021/08/16 00:27:36;;;;;;;;;;;;;;;19.00;100.00;95619.31;1036007;28;19921;-50
2021/08/16 00:28:06;;;;;;;;;;;;;;;19.01;100.00;95626.25;1036144;28;19953;-48
2021/08/16 00:28:36;;;;;;;;;;;;;;;19.00;100.00;95624.63;1040348;28;19913;-49
2021/08/16 00:29:07;;;;;;;;;;;;;;;19.02;100.00;95614.50;1040442;28;20255;-48
2021/08/16 00:29:37;;;;;;;;;;;;;;;19.04;100.00;95616.91;1040540;28;20050;-43
2021/08/16 00:30:08;;;;;;;;;;;;;;;19.10;100.00;95618.53;1040468;28;19905;-45
2021/08/16 00:30:38;;;;;;;;;;;;;;;19.06;100.00;95612.94;1040625;28;20444;-46
2021/08/16 00:31:08;;;;;;;;;;;;;;;19.07;100.00;95614.53;1036038;28;19906;-48
2021/08/16 00:31:39;;;;;;;;;;;;;;;19.05;100.00;95621.97;1036177;28;19913;-45
2021/08/16 00:32:09;;;;;;;;;;;;;;;19.03;100.00;95618.78;1036070;28;20366;-44
2021/08/16 00:32:40;;;;;;;;;;;;;;;19.02;100.00;95621.72;1036153;28;19912;-45
2021/08/16 00:33:10;;;;;;;;;;;;;;;19.09;100.00;95619.63;1036261;28;19905;-45
2021/08/16 00:33:40;;;;;;;;;;;;;;;19.10;100.00;95624.69;1040480;28;20032;-45
2021/08/16 00:34:11;;;;;;;;;;;;;;;19.16;100.00;95620.16;1035877;28;20327;-52
2021/08/16 00:34:41;;;;;;;;;;;;;;;19.17;100.00;95625.22;1035964;28;19909;-46
2021/08/16 00:35:11;;;;;;;;;;;;;;;19.16;100.00;95622.81;1036041;28;19909;-45
2021/08/16 00:35:41;;;;;;;;;;;;;;;19.17;100.00;95630.56;1036111;28;19906;-48
2021/08/16 00:36:12;;;;;;;;;;;;;;;19.20;100.00;95628.44;1040499;28;19905;-47
2021/08/16 00:36:43;;;;;;;;;;;;;;;19.21;100.00;95619.38;1040521;28;20273;-45
2021/08/16 00:37:13;;;;;;;;;;;;;;;19.14;100.00;95617.75;1040399;28;19959;-48
2021/08/16 00:37:45;;;;;;;;;;;;;;;19.14;100.00;95628.41;1036098;28;20333;-45
2021/08/16 00:38:16;;;;;;;;;;;;;;;19.17;100.00;95625.22;1035921;28;19902;-44
2021/08/16 00:38:46;;;;;;;;;;;;;;;19.17;100.00;95622.56;1032793;28;19905;-44
2021/08/16 00:39:16;;;;;;;;;;;;;;;19.17;100.00;95625.22;1032987;28;20359;-47
2021/08/16 00:39:46;;;;;;;;;;;;;;;19.13;100.00;95616.16;1032604;28;19910;-46
2021/08/16 00:40:17;;;;;;;;;;;;;;;19.15;100.00;95627.38;1032688;28;19913;-46
2021/08/16 00:40:47;;;;;;;;;;;;;;;19.18;100.00;95624.16;1036735;28;19910;-49
2021/08/16 00:41:17;;;;;;;;;;;;;;;19.13;100.00;95624.16;1028634;28;19981;-45
2021/08/16 00:41:48;;;;;;;;;;;;;;;19.15;100.00;95618.56;1032669;28;20011;-44
2021/08/16 00:42:18;;;;;;;;;;;;;;;19.16;100.00;95622.81;1032654;28;20005;-45
2021/08/16 00:42:49;;;;;;;;;;;;;;;19.18;100.00;95623.38;1032679;28;19906;-45
2021/08/16 00:43:19;;;;;;;;;;;;;;;19.16;100.00;95628.97;1036636;28;20386;-44
2021/08/16 00:43:50;;;;;;;;;;;;;;;19.16;100.00;95618.31;1032619;28;19906;-46
2021/08/16 00:44:20;;;;;;;;;;;;;;;19.15;100.00;95619.34;1032545;28;19909;-45
2021/08/16 00:44:50;;;;;;;;;;;;;;;19.14;100.00;95614.28;1036697;28;19906;-45
2021/08/16 00:45:20;;;;;;;;;;;;;;;19.15;100.00;95622.03;1036669;28;19909;-48
2021/08/16 00:45:51;;;;;;;;;;;;;;;19.19;100.00;95616.97;1041142;28;19927;-46
2021/08/16 00:46:21;;;;;;;;;;;;;;;19.18;100.00;95616.16;1036677;28;19906;-48
2021/08/16 00:46:52;;;;;;;;;;;;;;;19.19;100.00;95622.28;1036722;28;19905;-48
2021/08/16 00:47:22;;;;;;;;;;;;;;;19.19;100.00;95611.63;1032434;28;19945;-45
2021/08/16 00:47:52;;;;;;;;;;;;;;;19.17;100.00;95621.75;1032767;28;19958;-46
2021/08/16 00:48:23;;;;;;;;;;;;;;;19.18;100.00;95613.50;1036941;28;19937;-46
2021/08/16 00:48:54;;;;;;;;;;;;;;;19.21;100.00;95614.84;1036891;28;19905;-44
2021/08/16 00:49:24;;;;;;;;;;;;;;;19.20;100.00;95617.78;1041231;28;19905;-45
2021/08/16 00:49:54;;;;;;;;;;;;;;;19.20;100.00;95618.56;1041311;28;20266;-48
2021/08/16 00:50:25;;;;;;;;;;;;;;;19.18;100.00;95615.38;1041253;28;19984;-45
2021/08/16 00:50:55;;;;;;;;;;;;;;;19.15;100.00;95615.91;1041113;28;19960;-44
2021/08/16 00:51:27;;;;;;;;;;;;;;;19.17;100.00;95611.88;1036845;28;20011;-45
2021/08/16 00:51:57;;;;;;;;;;;;;;;19.18;100.00;95618.84;1036990;28;19972;-46
2021/08/16 00:52:28;;;;;;;;;;;;;;;19.20;100.00;95612.44;1036864;28;20334;-46
2021/08/16 00:52:58;;;;;;;;;;;;;;;19.21;100.00;95614.03;1037104;28;19913;-45
2021/08/16 00:53:29;;;;;;;;;;;;;;;19.21;100.00;95611.34;1036736;28;19913;-48
2021/08/16 00:54:02;;;;;;;;;;;;;;;19.21;100.00;95609.50;1036822;28;20390;-45
2021/08/16 00:54:32;;;;;;;;;;;;;;;19.24;100.00;95617.00;1033120;28;20294;-45
2021/08/16 00:55:04;;;;;;;;;;;;;;;19.25;100.00;95609.78;1037330;28;19920;-46
2021/08/16 00:55:35;;;;;;;;;;;;;;;19.26;100.00;95614.06;1040269;28;19967;-45
2021/08/16 00:56:05;;;;;;;;;;;;;;;19.27;100.00;95613.00;1036805;28;19993;-51
2021/08/16 00:56:35;;;;;;;;;;;;;;;19.25;100.00;95607.94;1033014;28;19942;-46
2021/08/16 00:57:06;;;;;;;;;;;;;;;19.25;100.00;95613.25;1036679;28;19913;-45
2021/08/16 00:57:36;;;;;;;;;;;;;;;19.25;100.00;95602.59;1032754;28;19914;-46
2021/08/16 00:58:07;;;;;;;;;;;;;;;19.27;100.00;95605.78;1028714;28;20004;-46
2021/08/16 00:58:37;;;;;;;;;;;;;;;19.28;100.00;95603.91;1028755;28;19937;-45
2021/08/16 00:59:08;;;;;;;;;;;;;;;19.28;100.00;95603.91;1032869;28;19968;-45
2021/08/16 00:59:38;;;;;;;;;;;;;;;19.29;100.00;95605.53;1028797;28;19921;-45
2021/08/16 01:00:09;;;;;;;;;;;;;;;19.32;100.00;95605.00;1032646;28;19924;-47
2021/08/16 01:00:39;;;;;;;;;;;;;;;19.26;100.00;95601.50;1033000;28;19992;-45
2021/08/16 01:01:09;;;;;;;;;;;;;;;19.26;100.00;95606.06;1036896;28;19920;-46
2021/08/16 01:01:40;;;;;;;;;;;;;;;19.31;100.00;95598.88;1036860;28;19920;-45
2021/08/16 01:02:10;;;;;;;;;;;;;;;19.31;100.00;95600.72;1036739;28;20376;-45
2021/08/16 01:02:41;;;;;;;;;;;;;;;19.30;100.00;95607.94;1036914;28;19937;-44
2021/08/16 01:03:12;;;;;;;;;;;;;;;19.29;100.00;95600.97;1037010;28;20282;-45
2021/08/16 01:03:43;;;;;;;;;;;;;;;19.32;100.00;95599.66;1041158;28;19917;-46
2021/08/16 01:04:13;;;;;;;;;;;;;;;19.31;100.00;95598.88;1036687;28;20350;-44
2021/08/16 01:04:44;;;;;;;;;;;;;;;19.28;100.00;95603.91;1036851;28;19980;-47
2021/08/16 01:05:14;;;;;;;;;;;;;;;19.31;100.00;95604.22;1036777;28;20028;-46
2021/08/16 01:05:45;;;;;;;;;;;;;;;19.32;100.00;95603.13;1037097;28;19916;-44
2021/08/16 01:06:15;;;;;;;;;;;;;;;19.31;100.00;95600.72;1041081;28;19918;-46
2021/08/16 01:06:46;;;;;;;;;;;;;;;19.28;100.00;95599.41;1036751;28;19920;-45
2021/08/16 01:07:16;;;;;;;;;;;;;;;19.24;100.00;95606.31;1036965;28;20368;-45
2021/08/16 01:07:48;;;;;;;;;;;;;;;19.25;100.00;95604.44;1032699;28;19984;-45
2021/08/16 01:08:18;;;;;;;;;;;;;;;19.27;100.00;95607.66;1032996;28;20304;-49
2021/08/16 01:08:49;;;;;;;;;;;;;;;19.31;100.00;95611.38;1036767;28;19989;-45
2021/08/16 01:09:19;;;;;;;;;;;;;;;19.32;100.00;95610.34;1037009;28;19914;-45
2021/08/16 01:09:50;;;;;;;;;;;;;;;19.33;100.00;95609.28;1040810;28;20370;-44
2021/08/16 01:10:20;;;;;;;;;;;;;;;19.33;100.00;95607.41;1040865;28;19992;-45
2021/08/16 01:10:51;;;;;;;;;;;;;;;19.29;100.00;95608.19;1040983;28;19962;-44
2021/08/16 01:11:21;;;;;;;;;;;;;;;19.35;100.00;95613.28;1041167;28;19947;-46
2021/08/16 01:11:51;;;;;;;;;;;;;;;19.34;100.00;95611.69;1036790;28;19906;-47
2021/08/16 01:12:22;;;;;;;;;;;;;;;19.32;100.00;95618.34;1036874;28;19909;-45
2021/08/16 01:12:52;;;;;;;;;;;;;;;19.32;100.00;95605.78;1036875;28;19972;-46
2021/08/16 01:13:23;;;;;;;;;;;;;;;19.36;100.00;95608.75;1036803;28;19909;-45
2021/08/16 01:13:53;;;;;;;;;;;;;;;19.35;100.00;95604.47;1036902;28;20354;-45
2021/08/16 01:14:23;;;;;;;;;;;;;;;19.34;100.00;95606.34;1032485;28;19945;-48
2021/08/16 01:14:54;;;;;;;;;;;;;;;19.33;100.00;95602.06;1032714;28;19910;-44
2021/08/16 01:15:25;;;;;;;;;;;;;;;19.34;100.00;95609.03;1032739;28;19918;-46
2021/08/16 01:16:04;;;;;;;;;;;;;;;19.36;100.00;95598.06;1037007;28;19913;-46
2021/08/16 01:16:35;;;;;;;;;;;;;;;19.35;100.00;95599.13;1041329;28;19913;-45
2021/08/16 01:17:05;;;;;;;;;;;;;;;19.32;100.00;95597.78;1041243;28;19913;-46
2021/08/16 01:17:36;;;;;;;;;;;;;;;19.33;100.00;95594.06;1041249;28;19940;-45
2021/08/16 01:18:06;;;;;;;;;;;;;;;19.37;100.00;95598.88;1036780;28;19936;-45
2021/08/16 01:18:36;;;;;;;;;;;;;;;19.37;100.00;95602.34;1036865;28;20386;-46
2021/08/16 01:19:07;;;;;;;;;;;;;;;19.37;100.00;95599.66;1032745;28;19906;-48
2021/08/16 01:19:37;;;;;;;;;;;;;;;19.39;100.00;95594.06;1032879;28;20000;-45
2021/08/16 01:20:08;;;;;;;;;;;;;;;19.36;100.00;95595.41;1036832;28;19913;-49
2021/08/16 01:20:39;;;;;;;;;;;;;;;19.33;100.00;95594.06;1036997;28;19913;-47
2021/08/16 01:21:09;;;;;;;;;;;;;;;19.32;100.00;95597.00;1040860;28;19909;-48
2021/08/16 01:21:40;;;;;;;;;;;;;;;19.33;100.00;95595.94;1040770;28;20003;-50
2021/08/16 01:22:10;;;;;;;;;;;;;;;19.30;100.00;95596.47;1040728;28;19992;-46
2021/08/16 01:22:40;;;;;;;;;;;;;;;19.33;100.00;95596.72;1041139;28;19914;-46
2021/08/16 01:23:11;;;;;;;;;;;;;;;19.33;100.00;95595.94;1041112;28;19917;-46
2021/08/16 01:23:41;;;;;;;;;;;;;;;19.35;100.00;95594.59;1041131;28;19924;-45
2021/08/16 01:24:11;;;;;;;;;;;;;;;19.34;100.00;95597.53;1040977;28;19909;-44
2021/08/16 01:24:42;;;;;;;;;;;;;;;19.33;100.00;95596.72;1041236;28;19975;-45
2021/08/16 01:25:12;;;;;;;;;;;;;;;19.32;100.00;95594.31;1041172;28;19937;-45
2021/08/16 01:25:47;;;;;;;;;;;;;;;19.32;100.00;95602.34;1041219;28;19964;-45
2021/08/16 01:26:18;;;;;;;;;;;;;;;19.30;100.00;95601.81;1036623;28;19910;-45
2021/08/16 01:26:48;;;;;;;;;;;;;;;19.28;100.00;95599.41;1036793;28;19953;-47
2021/08/16 01:27:18;;;;;;;;;;;;;;;19.31;100.00;95595.38;1036718;28;19913;-45
2021/08/16 01:27:49;;;;;;;;;;;;;;;19.31;100.00;95596.19;1036750;28;20410;-45
2021/08/16 01:28:19;;;;;;;;;;;;;;;19.33;100.00;95595.94;1041231;28;19986;-47
2021/08/16 01:28:49;;;;;;;;;;;;;;;19.31;100.00;95598.88;1041138;28;20016;-45
2021/08/16 01:29:20;;;;;;;;;;;;;;;19.31;100.00;95598.03;1041126;28;20277;-44
2021/08/16 01:29:50;;;;;;;;;;;;;;;19.32;100.00;95597.78;1041050;28;19920;-45
2021/08/16 01:30:21;;;;;;;;;;;;;;;19.32;100.00;95602.34;1041150;28;19916;-45
2021/08/16 01:30:55;;;;;;;;;;;;;;;19.37;100.00;95601.53;1041162;28;19909;-47
2021/08/16 01:31:25;;;;;;;;;;;;;;;19.35;100.00;95599.13;1041069;28;20003;-45
2021/08/16 01:31:57;;;;;;;;;;;;;;;19.33;100.00;95594.06;1041020;28;19905;-45
2021/08/16 01:32:27;;;;;;;;;;;;;;;19.35;100.00;95591.13;1041102;28;20004;-45
2021/08/16 01:32:57;;;;;;;;;;;;;;;19.35;100.00;95594.59;1041218;28;19910;-44
2021/08/16 01:33:27;;;;;;;;;;;;;;;19.35;100.00;95599.13;1041161;28;20274;-47
2021/08/16 01:33:58;;;;;;;;;;;;;;;19.33;100.00;95596.72;1041101;28;19909;-45
2021/08/16 01:34:29;;;;;;;;;;;;;;;19.35;100.00;95594.59;1040921;28;19916;-46
2021/08/16 01:35:00;;;;;;;;;;;;;;;19.35;100.00;95594.59;1036754;28;19916;-45
2021/08/16 01:35:30;;;;;;;;;;;;;;;19.37;100.00;95598.88;1032653;28;19945;-48
2021/08/16 01:36:00;;;;;;;;;;;;;;;19.37;100.00;95598.88;1032454;28;19917;-45
2021/08/16 01:36:31;;;;;;;;;;;;;;;19.36;100.00;95600.75;1032659;28;20037;-50
2021/08/16 01:37:01;;;;;;;;;;;;;;;19.37;100.00;95597.00;1036637;28;19953;-46
2021/08/16 01:37:31;;;;;;;;;;;;;;;19.35;100.00;95589.25;1036352;28;19909;-45
2021/08/16 01:38:02;;;;;;;;;;;;;;;19.38;100.00;95595.94;1032497;28;19910;-47
2021/08/16 01:38:33;;;;;;;;;;;;;;;19.39;100.00;95594.06;1032477;28;19997;-47
2021/08/16 01:39:03;;;;;;;;;;;;;;;19.42;100.00;95591.69;1032521;28;19909;-46
2021/08/16 01:39:33;;;;;;;;;;;;;;;19.46;100.00;95595.41;1036667;28;19917;-46
2021/08/16 01:40:10;;;;;;;;;;;;;;;19.43;100.00;95587.94;1040896;28;19915;-45
2021/08/16 01:40:40;;;;;;;;;;;;;;;19.43;100.00;95590.59;1040923;28;19915;-46
2021/08/16 01:41:10;;;;;;;;;;;;;;;19.45;100.00;95591.16;1040951;28;19912;-46
2021/08/16 01:41:41;;;;;;;;;;;;;;;19.43;100.00;95585.25;1036416;28;20401;-45
2021/08/16 01:42:11;;;;;;;;;;;;;;;19.43;100.00;95585.25;1036578;28;19917;-45
2021/08/16 01:42:41;;;;;;;;;;;;;;;19.47;100.00;95590.88;1036513;28;20004;-46
2021/08/16 01:43:12;;;;;;;;;;;;;;;19.47;100.00;95585.56;1036560;28;19917;-45
2021/08/16 01:43:42;;;;;;;;;;;;;;;19.46;100.00;95590.06;1040866;28;19981;-45
2021/08/16 01:44:14;;;;;;;;;;;;;;;19.47;100.00;95582.88;1040810;28;20051;-45
2021/08/16 01:44:45;;;;;;;;;;;;;;;19.47;100.00;95589.00;1040902;28;19909;-45
2021/08/16 01:45:15;;;;;;;;;;;;;;;19.48;100.00;95590.63;1041020;28;19962;-49
2021/08/16 01:45:45;;;;;;;;;;;;;;;19.47;100.00;95590.88;1041052;28;19916;-49
2021/08/16 01:46:16;;;;;;;;;;;;;;;19.46;100.00;95595.41;1040953;28;19995;-44
2021/08/16 01:46:46;;;;;;;;;;;;;;;19.47;100.00;95593.56;1040921;28;19905;-46
2021/08/16 01:47:16;;;;;;;;;;;;;;;19.49;100.00;95594.88;1040964;28;19931;-46
2021/08/16 01:47:47;;;;;;;;;;;;;;;19.47;100.00;95594.34;1041018;28;19921;-45
2021/08/16 01:48:17;;;;;;;;;;;;;;;19.49;100.00;95589.53;1041101;28;19955;-46
2021/08/16 01:48:47;;;;;;;;;;;;;;;19.47;100.00;95594.34;1041096;28;19991;-45
2021/08/16 01:49:17;;;;;;;;;;;;;;;19.51;100.00;95587.44;1041063;28;19910;-45
2021/08/16 01:49:48;;;;;;;;;;;;;;;19.52;100.00;95589.03;1041059;28;19992;-46
2021/08/16 01:50:18;;;;;;;;;;;;;;;19.52;100.00;95594.38;1041026;28;20408;-46
2021/08/16 01:50:48;;;;;;;;;;;;;;;19.53;100.00;95592.50;1041022;28;19905;-45
2021/08/16 01:51:19;;;;;;;;;;;;;;;19.53;100.00;95587.16;1041149;28;19912;-45
2021/08/16 01:51:49;;;;;;;;;;;;;;;19.55;100.00;95589.56;1041008;28;20285;-45
2021/08/16 01:52:19;;;;;;;;;;;;;;;19.57;100.00;95587.41;1041059;28;19923;-45
2021/08/16 01:52:50;;;;;;;;;;;;;;;19.57;100.00;95582.91;1041149;28;20265;-44
2021/08/16 01:53:20;;;;;;;;;;;;;;;19.59;100.00;95579.97;1041078;28;19906;-45
2021/08/16 01:53:50;;;;;;;;;;;;;;;19.60;100.00;95578.88;1040922;28;19902;-44
2021/08/16 01:54:21;;;;;;;;;;;;;;;19.61;100.00;95580.50;1040811;28;19905;-44
2021/08/16 01:54:51;;;;;;;;;;;;;;;19.61;100.00;95580.50;1041085;28;20266;-44
2021/08/16 01:55:21;;;;;;;;;;;;;;;19.62;100.00;95574.09;1041134;28;19905;-44
2021/08/16 01:55:52;;;;;;;;;;;;;;;19.65;100.00;95570.88;1040946;28;20317;-45
2021/08/16 01:56:22;;;;;;;;;;;;;;;19.66;100.00;95580.47;1041045;28;20346;-45
2021/08/16 01:56:52;;;;;;;;;;;;;;;19.64;100.00;95574.63;1041109;28;19948;-45
2021/08/16 01:57:23;;;;;;;;;;;;;;;19.62;100.00;95582.09;1040990;28;19901;-45
2021/08/16 01:57:53;;;;;;;;;;;;;;;19.62;100.00;95580.22;1041001;28;19952;-45
2021/08/16 01:58:23;;;;;;;;;;;;;;;19.64;100.00;95579.97;1041021;28;19909;-44
2021/08/16 01:58:53;;;;;;;;;;;;;;;19.67;100.00;95579.44;1040983;28;20029;-44
2021/08/16 01:59:24;;;;;;;;;;;;;;;19.67;100.00;95587.44;1041035;28;19906;-44
2021/08/16 01:59:54;;;;;;;;;;;;;;;19.68;100.00;95586.38;1036721;28;20259;-44
2021/08/16 02:00:24;;;;;;;;;;;;;;;19.68;100.00;95581.03;1036925;28;19957;-45
2021/08/16 02:00:55;;;;;;;;;;;;;;;19.69;100.00;95583.44;1036772;28;19911;-43
2021/08/16 02:01:25;;;;;;;;;;;;;;;19.68;100.00;95589.84;1036594;28;20270;-43
2021/08/16 02:01:55;;;;;;;;;;;;;;;19.71;100.00;95585.84;1041061;28;19958;-44
2021/08/16 02:02:26;;;;;;;;;;;;;;;19.71;100.00;95581.28;1041122;28;19977;-44
2021/08/16 02:02:56;;;;;;;;;;;;;;;19.71;100.00;95578.63;1041021;28;19901;-44
2021/08/16 02:03:26;;;;;;;;;;;;;;;19.73;100.00;95585.59;1040894;28;19909;-44
2021/08/16 02:03:56;;;;;;;;;;;;;;;19.74;100.00;95576.47;1041045;28;19913;-44
2021/08/16 02:04:27;;;;;;;;;;;;;;;19.76;100.00;95572.47;1040717;28;20324;-44
2021/08/16 02:04:57;;;;;;;;;;;;;;;19.73;100.00;95574.91;1041136;28;19906;-44
2021/08/16 02:05:27;;;;;;;;;;;;;;;19.74;100.00;95573.81;1040939;28;19906;-45
2021/08/16 02:05:58;;;;;;;;;;;;;;;19.72;100.00;95568.72;1040944;28;20335;-44
2021/08/16 02:06:28;;;;;;;;;;;;;;;19.72;100.00;95566.06;1041037;28;20357;-48
2021/08/16 02:06:58;;;;;;;;;;;;;;;19.73;100.00;95573.03;1041037;28;19955;-48
2021/08/16 02:07:28;;;;;;;;;;;;;;;19.76;100.00;95575.16;1040887;28;19902;-45
2021/08/16 02:07:59;;;;;;;;;;;;;;;19.75;100.00;95572.75;1040969;28;19905;-45
2021/08/16 02:08:30;;;;;;;;;;;;;;;19.73;100.00;95566.88;1040969;28;19917;-46
2021/08/16 02:09:00;;;;;;;;;;;;;;;19.72;100.00;95574.06;1036775;28;20354;-47
2021/08/16 02:09:30;;;;;;;;;;;;;;;19.74;100.00;95574.63;1036551;28;19973;-45
2021/08/16 02:10:00;;;;;;;;;;;;;;;19.76;100.00;95577.03;1036569;28;19920;-45
2021/08/16 02:10:31;;;;;;;;;;;;;;;19.76;100.00;95574.38;1036592;28;19914;-46
2021/08/16 02:11:01;;;;;;;;;;;;;;;19.75;100.00;95575.41;1036489;28;19914;-47
2021/08/16 02:11:31;;;;;;;;;;;;;;;19.74;100.00;95566.63;1036553;28;19980;-48
2021/08/16 02:12:02;;;;;;;;;;;;;;;19.74;100.00;95577.31;1036625;28;19921;-46
2021/08/16 02:12:32;;;;;;;;;;;;;;;19.71;100.00;95573.28;1036514;28;19921;-48
2021/08/16 02:13:03;;;;;;;;;;;;;;;19.73;100.00;95573.03;1041326;28;19913;-44
2021/08/16 02:13:33;;;;;;;;;;;;;;;19.71;100.00;95564.47;1041304;28;20339;-44
2021/08/16 02:14:03;;;;;;;;;;;;;;;19.72;100.00;95563.41;1041012;28;19920;-45
2021/08/16 02:14:34;;;;;;;;;;;;;;;19.72;100.00;95568.72;1036332;28;19920;-45
2021/08/16 02:15:08;;;;;;;;;;;;;;;19.72;100.00;95568.72;1036503;28;19914;-44
2021/08/16 02:15:38;;;;;;;;;;;;;;;19.70;100.00;95569.00;1036520;28;19913;-47
2021/08/16 02:16:08;;;;;;;;;;;;;;;19.73;100.00;95561.53;1037058;28;19905;-45
2021/08/16 02:16:39;;;;;;;;;;;;;;;19.70;100.00;95561.00;1040972;28;19913;-48
2021/08/16 02:17:09;;;;;;;;;;;;;;;19.65;100.00;95566.34;1041023;28;19901;-48
2021/08/16 02:17:39;;;;;;;;;;;;;;;19.62;100.00;95558.06;1040885;28;19924;-46
2021/08/16 02:18:09;;;;;;;;;;;;;;;19.61;100.00;95559.13;1040931;28;19905;-45
2021/08/16 02:18:40;;;;;;;;;;;;;;;19.66;100.00;95562.63;1036482;28;19906;-45
2021/08/16 02:19:10;;;;;;;;;;;;;;;19.64;100.00;95567.41;1036523;28;19917;-45
2021/08/16 02:19:40;;;;;;;;;;;;;;;19.64;100.00;95569.28;1036556;28;19906;-45
2021/08/16 02:20:11;;;;;;;;;;;;;;;19.63;100.00;95570.34;1036539;28;19913;-46
2021/08/16 02:20:41;;;;;;;;;;;;;;;19.62;100.00;95572.22;1040952;28;19958;-45
2021/08/16 02:21:11;;;;;;;;;;;;;;;19.63;100.00;95565.00;1041038;28;19940;-45
2021/08/16 02:21:42;;;;;;;;;;;;;;;19.62;100.00;95566.09;1040922;28;19912;-44
2021/08/16 02:22:12;;;;;;;;;;;;;;;19.61;100.00;95567.13;1040993;28;19906;-45
2021/08/16 02:22:42;;;;;;;;;;;;;;;19.61;100.00;95562.59;1041096;28;19905;-44
2021/08/16 02:23:12;;;;;;;;;;;;;;;19.62;100.00;95566.88;1040885;28;19909;-45
2021/08/16 02:23:43;;;;;;;;;;;;;;;19.63;100.00;95562.31;1040965;28;19937;-44
2021/08/16 02:24:13;;;;;;;;;;;;;;;19.61;100.00;95559.91;1040635;28;20354;-44
2021/08/16 02:24:43;;;;;;;;;;;;;;;19.63;100.00;95555.13;1036530;28;19958;-45
2021/08/16 02:25:14;;;;;;;;;;;;;;;19.61;100.00;95551.13;1036534;28;19981;-44
2021/08/16 02:25:44;;;;;;;;;;;;;;;19.62;100.00;95544.72;1032631;28;20351;-44
2021/08/16 02:26:14;;;;;;;;;;;;;;;19.61;100.00;95543.09;1032511;28;19906;-44
2021/08/16 02:26:44;;;;;;;;;;;;;;;19.62;100.00;95547.38;1036417;28;19977;-45
2021/08/16 02:27:15;;;;;;;;;;;;;;;19.63;100.00;95546.31;1036537;28;19912;-44
2021/08/16 02:27:46;;;;;;;;;;;;;;;19.62;100.00;95544.72;1040797;28;19905;-45
2021/08/16 02:28:17;;;;;;;;;;;;;;;19.66;100.00;95545.78;1040949;28;20000;-44
2021/08/16 02:28:47;;;;;;;;;;;;;;;19.63;100.00;95549.78;1040868;28;19905;-44
2021/08/16 02:29:17;;;;;;;;;;;;;;;19.64;100.00;95547.91;1036504;28;19902;-45
2021/08/16 02:29:47;;;;;;;;;;;;;;;19.65;100.00;95546.84;1036434;28;19906;-44
2021/08/16 02:30:18;;;;;;;;;;;;;;;19.66;100.00;95551.09;1036509;28;19909;-46
2021/08/16 02:30:48;;;;;;;;;;;;;;;19.65;100.00;95557.53;1032369;28;20330;-44
2021/08/16 02:31:20;;;;;;;;;;;;;;;19.64;100.00;95551.38;1036529;28;20024;-45
2021/08/16 02:31:51;;;;;;;;;;;;;;;19.63;100.00;95551.66;1036499;28;19909;-45
2021/08/16 02:32:21;;;;;;;;;;;;;;;19.61;100.00;95557.25;1032619;28;19909;-44
2021/08/16 02:32:51;;;;;;;;;;;;;;;19.61;100.00;95554.56;1032539;28;19973;-45
2021/08/16 02:33:22;;;;;;;;;;;;;;;19.61;100.00;95556.47;1028351;28;19981;-47
2021/08/16 02:33:52;;;;;;;;;;;;;;;19.62;100.00;95558.06;1028555;28;19910;-45
2021/08/16 02:34:22;;;;;;;;;;;;;;;19.62;100.00;95555.41;1032089;28;19910;-44
2021/08/16 02:34:52;;;;;;;;;;;;;;;19.63;100.00;95556.97;1036621;28;20366;-44
2021/08/16 02:35:23;;;;;;;;;;;;;;;19.62;100.00;95550.06;1036517;28;19943;-45
2021/08/16 02:35:53;;;;;;;;;;;;;;;19.61;100.00;95559.13;1036424;28;19972;-45
2021/08/16 02:36:23;;;;;;;;;;;;;;;19.62;100.00;95550.84;1040926;28;19905;-45